KOGA

Searle Field Airport

Ogallala, Nebraska, USA
METAR KOGA 110155Z AUTO 00000KT 10SM CLR M04/M06 A3005 RMK AO2 T10361060
Observed Flight Rules
Dec-11 @ 01:55 UTC (29 minutes ago) Visual Flight Rules
Visibility Clouds
10 miles
  • Clear skies
Temperatures Readings
Current -4°C / 25°F
Dewpoint -6°C / 21°F
Humidity 86%
Altimeter 30.05" Hg
Pressure 1018 hPa
Elevation 999
METAR KOGA 110155Z AUTO 00000KT 10SM CLR M04/M06 A3005 RMK AO2 T10361060
Observed Flight Rules
Dec-11 @ 01:55 UTC
(29 minutes ago)
VFR
Clouds
  • Clear skies
Temperature Dewpoint
-4°C / 25°F -6°C / 21°F
Humidity Altimeter Pressure
86% 30.05" Hg 1018 hPa